createdAt,value
2019-02-17T00:00:26.161Z,99.90
2019-02-17T00:02:56.463Z,99.90
2019-02-17T00:05:26.846Z,99.90
2019-02-17T00:07:57.442Z,99.90
2019-02-17T00:10:27.920Z,99.90
2019-02-17T00:12:58.522Z,99.90
2019-02-17T00:15:29.074Z,99.90
2019-02-17T00:17:59.354Z,99.90
2019-02-17T00:20:29.925Z,99.90
2019-02-17T00:23:00.363Z,99.90
2019-02-17T00:25:30.813Z,99.90
2019-02-17T00:28:01.142Z,99.90
2019-02-17T00:30:31.674Z,99.90
2019-02-17T00:33:02.063Z,99.90
2019-02-17T00:35:32.623Z,99.90
2019-02-17T00:38:02.822Z,99.90
2019-02-17T00:40:33.230Z,99.90
2019-02-17T00:43:03.646Z,99.90
2019-02-17T00:45:34.142Z,99.90
2019-02-17T00:48:04.446Z,99.90
2019-02-17T00:50:34.676Z,99.90
2019-02-17T00:53:05.066Z,99.90
2019-02-17T00:58:05.570Z,99.90
2019-02-17T01:00:36.368Z,99.90
2019-02-17T01:03:06.950Z,99.90
2019-02-17T01:05:37.263Z,99.90
2019-02-17T01:08:07.962Z,99.90
2019-02-17T01:10:38.658Z,99.90
2019-02-17T01:13:08.944Z,99.90
2019-02-17T01:15:39.204Z,99.90
2019-02-17T01:18:09.482Z,99.90
2019-02-17T01:20:40.131Z,99.90
2019-02-17T01:23:10.473Z,99.90
2019-02-17T01:25:40.830Z,99.90
2019-02-17T01:28:11.070Z,99.90
2019-02-17T01:30:41.498Z,99.90
2019-02-17T01:33:11.845Z,99.90
2019-02-17T01:35:42.214Z,99.90
2019-02-17T01:40:42.129Z,99.90
2019-02-17T01:43:12.647Z,99.90
2019-02-17T01:45:43.129Z,99.90
2019-02-17T01:48:13.511Z,99.90
2019-02-17T01:50:43.842Z,99.90
2019-02-17T01:53:14.075Z,99.90
2019-02-17T01:58:14.658Z,99.90
2019-02-17T02:00:45.074Z,99.90
2019-02-17T02:03:15.474Z,99.90
2019-02-17T02:08:15.986Z,99.90
2019-02-17T02:10:46.559Z,99.90
2019-02-17T02:13:17.178Z,99.90
2019-02-17T02:15:47.482Z,99.90
2019-02-17T02:18:17.999Z,99.90
2019-02-17T02:20:48.385Z,99.90
2019-02-17T02:23:18.836Z,99.90
2019-02-17T02:25:49.232Z,99.90
2019-02-17T02:28:19.906Z,99.90
2019-02-17T02:30:50.264Z,99.90
2019-02-17T02:33:20.575Z,99.90
2019-02-17T02:35:50.855Z,99.90
2019-02-17T02:38:21.118Z,99.90
2019-02-17T02:40:51.516Z,99.90
2019-02-17T02:43:21.987Z,99.90
2019-02-17T02:45:52.403Z,99.90
2019-02-17T02:48:22.787Z,99.90
2019-02-17T02:50:53.428Z,99.90
2019-02-17T02:53:23.618Z,99.90
2019-02-17T02:55:54.487Z,99.90
2019-02-17T02:58:24.849Z,99.90
2019-02-17T03:00:55.302Z,99.90
2019-02-17T03:03:25.546Z,99.90
2019-02-17T03:06:07.624Z,99.90
2019-02-17T03:08:37.950Z,99.90
2019-02-17T03:11:08.398Z,99.90
2019-02-17T03:13:38.757Z,99.90
2019-02-17T03:16:09.194Z,99.90
2019-02-17T03:18:39.603Z,99.90
2019-02-17T03:21:10.008Z,99.90
2019-02-17T03:23:40.263Z,99.90
2019-02-17T03:26:10.687Z,99.90
2019-02-17T03:28:41.115Z,99.90
2019-02-17T03:31:11.682Z,99.90
2019-02-17T03:33:42.219Z,99.90
2019-02-17T03:36:12.571Z,99.90
2019-02-17T03:38:42.874Z,99.90
2019-02-17T03:41:13.241Z,99.90
2019-02-17T03:43:43.790Z,99.90
2019-02-17T03:46:14.302Z,99.90
2019-02-17T03:48:44.526Z,99.90
2019-02-17T03:51:15.049Z,99.90
2019-02-17T03:53:45.468Z,99.90
2019-02-17T03:56:15.874Z,99.90
2019-02-17T03:58:46.178Z,99.90
2019-02-17T04:01:16.755Z,99.90
2019-02-17T04:06:17.003Z,99.90
2019-02-17T04:08:47.438Z,99.90
2019-02-17T04:11:18.113Z,99.90
2019-02-17T04:13:48.367Z,99.90
2019-02-17T04:16:18.705Z,99.90
2019-02-17T04:18:49.009Z,99.90
2019-02-17T04:21:19.486Z,99.90
2019-02-17T04:23:49.824Z,99.90
2019-02-17T04:26:20.278Z,99.90
2019-02-17T04:28:50.645Z,99.90
2019-02-17T04:31:20.963Z,99.90
2019-02-17T04:33:51.688Z,99.90
2019-02-17T04:36:21.993Z,99.90
2019-02-17T04:38:52.446Z,99.90
2019-02-17T04:41:22.705Z,99.90
2019-02-17T04:43:53.330Z,99.90
2019-02-17T04:46:24.401Z,99.90
2019-02-17T04:48:54.743Z,99.90
2019-02-17T04:51:25.254Z,99.90
2019-02-17T04:53:55.756Z,99.90
2019-02-17T04:56:26.125Z,99.90
2019-02-17T04:58:56.418Z,99.90
2019-02-17T05:01:26.764Z,99.90
2019-02-17T05:03:57.054Z,99.90
2019-02-17T05:06:27.399Z,99.90
2019-02-17T05:08:57.990Z,99.90
2019-02-17T05:11:28.331Z,99.90
2019-02-17T05:13:58.712Z,99.90
2019-02-17T05:16:29.250Z,99.90
2019-02-17T05:18:59.610Z,99.90
2019-02-17T05:21:30.241Z,99.90
2019-02-17T05:24:00.673Z,99.90
2019-02-17T05:26:30.989Z,99.90
2019-02-17T05:29:01.394Z,99.90
2019-02-17T05:31:32.048Z,99.90
2019-02-17T05:34:02.548Z,99.90
2019-02-17T05:36:32.742Z,99.90
2019-02-17T05:39:03.100Z,99.90
2019-02-17T05:41:33.567Z,99.90
2019-02-17T05:44:04.034Z,99.90
2019-02-17T05:46:34.320Z,99.90
2019-02-17T05:49:04.686Z,99.90
2019-02-17T05:51:35.013Z,99.90
2019-02-17T05:54:05.559Z,99.90
2019-02-17T05:56:35.659Z,99.90
2019-02-17T05:59:06.033Z,99.90
2019-02-17T06:01:36.453Z,99.90
2019-02-17T06:04:06.845Z,99.90
2019-02-17T06:06:37.195Z,99.90
2019-02-17T06:09:07.666Z,99.90
2019-02-17T06:11:38.007Z,99.90
2019-02-17T06:14:08.241Z,99.90
2019-02-17T06:16:38.682Z,99.90
2019-02-17T06:19:09.169Z,99.90
2019-02-17T06:21:39.395Z,99.90
2019-02-17T06:24:09.626Z,99.90
2019-02-17T06:26:40.103Z,99.90
2019-02-17T06:29:10.599Z,99.90
2019-02-17T06:31:40.898Z,99.90
2019-02-17T06:34:11.374Z,99.90
2019-02-17T06:36:41.794Z,99.90
2019-02-17T06:39:12.073Z,99.90
2019-02-17T06:41:42.403Z,99.90
2019-02-17T06:44:12.715Z,99.90
2019-02-17T06:46:48.729Z,99.90
2019-02-17T06:49:19.213Z,99.90
2019-02-17T06:51:49.513Z,99.90
2019-02-17T06:54:19.974Z,99.90
2019-02-17T06:56:58.114Z,99.90
2019-02-17T06:59:28.615Z,99.90
2019-02-17T07:01:58.929Z,99.90
2019-02-17T07:04:33.310Z,99.90
2019-02-17T07:07:05.530Z,99.90
2019-02-17T07:09:35.979Z,99.90
2019-02-17T07:12:06.266Z,99.90
2019-02-17T07:14:38.363Z,99.90
2019-02-17T07:22:06.091Z,99.90
2019-02-17T07:24:36.403Z,99.90
2019-02-17T07:27:06.834Z,99.90
2019-02-17T07:29:37.219Z,99.90
2019-02-17T07:32:07.726Z,99.90
2019-02-17T07:34:38.095Z,99.90
2019-02-17T07:37:08.538Z,99.90
2019-02-17T07:39:38.974Z,99.90
2019-02-17T07:42:09.774Z,99.90
2019-02-17T07:44:40.553Z,99.90
2019-02-17T07:47:10.433Z,99.90
2019-02-17T07:49:41.142Z,99.90
2019-02-17T07:52:11.447Z,99.90
2019-02-17T07:54:41.754Z,99.90
2019-02-17T07:57:12.239Z,99.90
2019-02-17T07:59:42.637Z,99.90
2019-02-17T08:02:13.050Z,99.90
2019-02-17T08:04:43.361Z,99.90
2019-02-17T08:07:13.758Z,99.90
2019-02-17T08:09:44.085Z,99.90
2019-02-17T08:12:14.370Z,99.90
2019-02-17T08:14:44.714Z,99.90
2019-02-17T08:17:15.259Z,99.90
2019-02-17T08:19:45.517Z,99.90
2019-02-17T08:22:15.847Z,99.90
2019-02-17T08:24:46.589Z,99.90
2019-02-17T08:27:16.902Z,99.90
2019-02-17T08:29:47.210Z,99.90
2019-02-17T08:32:17.658Z,99.90
2019-02-17T08:34:47.866Z,99.90
2019-02-17T08:37:18.327Z,99.90
2019-02-17T08:39:49.010Z,99.90
2019-02-17T08:42:19.124Z,99.90
2019-02-17T08:44:49.403Z,99.90
2019-02-17T08:47:19.809Z,99.90
2019-02-17T08:52:19.859Z,99.90
2019-02-17T08:54:50.137Z,99.90
2019-02-17T08:57:20.558Z,99.90
2019-02-17T08:59:50.913Z,99.90
2019-02-17T09:02:21.173Z,99.90
2019-02-17T09:04:51.445Z,99.90
2019-02-17T09:07:21.642Z,99.90
2019-02-17T09:09:51.885Z,99.90
2019-02-17T09:12:22.224Z,99.90
2019-02-17T09:14:52.654Z,99.90
2019-02-17T09:17:23.116Z,99.90
2019-02-17T09:19:53.357Z,99.90
2019-02-17T09:22:23.621Z,99.90
2019-02-17T09:24:53.958Z,99.90
2019-02-17T09:27:24.318Z,99.90
2019-02-17T09:29:54.574Z,99.90
2019-02-17T09:32:24.968Z,99.90
2019-02-17T09:34:55.186Z,99.90
2019-02-17T09:37:25.569Z,99.90
2019-02-17T09:39:55.969Z,99.90
2019-02-17T09:42:26.278Z,99.90
2019-02-17T09:44:56.601Z,99.90
2019-02-17T09:47:27.138Z,99.90
2019-02-17T09:49:57.441Z,99.90
2019-02-17T09:52:27.762Z,99.90
2019-02-17T09:54:58.131Z,99.90
2019-02-17T09:57:28.504Z,99.90
2019-02-17T09:59:58.808Z,99.90
2019-02-17T10:02:29.086Z,99.90
2019-02-17T10:04:59.554Z,99.90
2019-02-17T10:07:29.902Z,99.90
2019-02-17T10:10:00.221Z,99.90
2019-02-17T10:12:30.551Z,99.90
2019-02-17T10:15:00.818Z,99.90
2019-02-17T10:17:31.203Z,99.90
2019-02-17T10:20:01.426Z,99.90
2019-02-17T10:22:31.702Z,99.90
2019-02-17T10:25:02.422Z,99.90
2019-02-17T10:27:32.838Z,99.90
2019-02-17T10:30:03.127Z,99.90
2019-02-17T10:32:37.271Z,99.90
2019-02-17T10:35:04.302Z,99.90
2019-02-17T10:37:34.613Z,99.90
2019-02-17T10:40:05.149Z,99.90
2019-02-17T10:42:35.462Z,99.90
2019-02-17T10:45:06.005Z,99.90
2019-02-17T10:47:36.575Z,99.90
2019-02-17T10:50:07.209Z,99.90
2019-02-17T10:52:37.534Z,99.90
2019-02-17T10:55:08.169Z,99.90
2019-02-17T10:57:38.594Z,99.90
2019-02-17T11:00:12.572Z,99.90
2019-02-17T11:02:46.969Z,99.90
2019-02-17T11:05:13.750Z,99.90
2019-02-17T11:07:44.453Z,99.90
2019-02-17T11:10:14.852Z,98.00
2019-02-17T11:12:45.288Z,98.20
2019-02-17T11:15:17.504Z,98.80
2019-02-17T11:17:48.026Z,99.90
2019-02-17T11:20:18.292Z,99.90
2019-02-17T11:22:48.601Z,99.70
2019-02-17T11:25:18.912Z,96.10
2019-02-17T11:27:49.313Z,98.60
2019-02-17T11:30:19.709Z,97.60
2019-02-17T11:32:57.600Z,95.70
2019-02-17T11:35:20.445Z,96.80
2019-02-17T11:37:50.781Z,97.50
2019-02-17T11:40:21.093Z,93.50
2019-02-17T11:42:51.533Z,95.20
2019-02-17T11:45:22.381Z,95.30
2019-02-17T11:47:52.697Z,95.50
2019-02-17T11:50:22.819Z,92.50
2019-02-17T11:52:53.193Z,91.70
2019-02-17T11:55:23.638Z,90.80
2019-02-17T11:57:54.296Z,87.10
2019-02-17T12:00:24.626Z,87.60
2019-02-17T12:02:54.873Z,87.90
2019-02-17T12:05:25.121Z,87.50
2019-02-17T12:07:55.462Z,88.90
2019-02-17T12:10:25.722Z,88.10
2019-02-17T12:12:56.033Z,84.40
2019-02-17T12:15:26.272Z,84.20
2019-02-17T12:17:56.553Z,85.80
2019-02-17T12:21:29.676Z,86.70
2019-02-17T12:24:04.826Z,86.90
2019-02-17T12:26:42.102Z,88.00
2019-02-17T12:29:17.441Z,79.20
2019-02-17T12:31:47.794Z,84.10
2019-02-17T12:34:18.281Z,82.30
2019-02-17T12:36:48.565Z,81.20
2019-02-17T12:39:18.891Z,82.20
2019-02-17T12:41:49.211Z,78.30
2019-02-17T12:44:19.558Z,78.70
2019-02-17T12:46:49.975Z,76.40
2019-02-17T12:49:20.630Z,78.60
2019-02-17T12:51:50.881Z,76.60
2019-02-17T12:54:28.899Z,78.00
2019-02-17T12:59:21.298Z,78.10
2019-02-17T13:01:51.606Z,76.60
2019-02-17T13:04:22.043Z,78.60
2019-02-17T13:09:22.098Z,72.40
2019-02-17T13:11:52.345Z,71.20
2019-02-17T13:14:22.656Z,73.30
2019-02-17T13:16:53.086Z,74.30
2019-02-17T13:19:23.261Z,70.10
2019-02-17T13:21:53.612Z,69.10
2019-02-17T13:24:23.902Z,69.30
2019-02-17T13:26:54.082Z,68.40
2019-02-17T13:29:24.320Z,69.00
2019-02-17T13:31:54.562Z,68.80
2019-02-17T13:34:24.942Z,66.80
2019-02-17T13:36:55.226Z,67.20
2019-02-17T13:39:25.557Z,69.60
2019-02-17T13:41:56.131Z,65.70
2019-02-17T13:44:26.483Z,64.90
2019-02-17T13:46:56.742Z,63.30
2019-02-17T13:49:27.066Z,64.00
2019-02-17T13:51:57.394Z,63.80
2019-02-17T13:54:27.842Z,65.70
2019-02-17T13:56:58.111Z,63.80
2019-02-17T13:59:28.444Z,65.70
2019-02-17T14:04:28.429Z,62.90
2019-02-17T14:06:58.701Z,64.50
2019-02-17T14:15:16.643Z,64.10
2019-02-17T14:17:47.009Z,63.70
2019-02-17T14:20:17.566Z,64.40
2019-02-17T14:22:47.988Z,67.30
2019-02-17T14:25:18.348Z,65.50
2019-02-17T14:27:48.687Z,65.20
2019-02-17T14:30:19.354Z,65.30
2019-02-17T14:32:49.659Z,63.60
2019-02-17T14:35:19.943Z,65.90
2019-02-17T14:37:50.266Z,65.50
2019-02-17T14:40:20.640Z,66.10
2019-02-17T14:42:50.884Z,69.20
2019-02-17T14:45:21.158Z,68.90
2019-02-17T14:47:51.495Z,64.40
2019-02-17T14:50:21.856Z,63.40
2019-02-17T14:52:52.135Z,62.90
2019-02-17T14:55:22.524Z,65.80
2019-02-17T14:57:52.682Z,64.60
2019-02-17T15:00:22.931Z,64.00
2019-02-17T15:02:53.231Z,62.20
2019-02-17T15:05:23.549Z,61.60
2019-02-17T15:07:53.880Z,61.60
2019-02-17T15:10:24.229Z,59.40
2019-02-17T15:15:24.424Z,58.80
2019-02-17T15:17:54.538Z,58.50
2019-02-17T15:20:24.967Z,57.60
2019-02-17T15:22:55.335Z,58.10
2019-02-17T15:25:25.628Z,58.00
2019-02-17T15:27:55.951Z,57.10
2019-02-17T15:30:26.231Z,57.80
2019-02-17T15:33:03.507Z,58.50
2019-02-17T15:35:26.806Z,60.00
2019-02-17T15:37:57.144Z,61.40
2019-02-17T15:40:27.579Z,66.20
2019-02-17T15:45:28.527Z,73.40
2019-02-17T15:47:59.082Z,73.90
2019-02-17T15:50:29.630Z,74.30
2019-02-17T15:52:59.891Z,75.80
2019-02-17T15:55:30.315Z,78.20
2019-02-17T15:58:00.619Z,84.40
2019-02-17T16:00:30.915Z,90.00
2019-02-17T16:03:01.180Z,93.30
2019-02-17T16:05:31.637Z,95.30
2019-02-17T16:08:08.656Z,96.10
2019-02-17T16:10:39.027Z,98.30
2019-02-17T16:13:09.330Z,99.90
2019-02-17T16:15:39.595Z,99.90
2019-02-17T16:18:09.979Z,99.90
2019-02-17T16:20:40.292Z,99.90
2019-02-17T16:23:10.636Z,99.90
2019-02-17T16:25:41.013Z,99.90
2019-02-17T16:28:11.615Z,99.90
2019-02-17T16:30:41.995Z,99.90
2019-02-17T16:33:12.469Z,99.90
2019-02-17T16:35:42.777Z,99.90
2019-02-17T16:38:13.075Z,99.90
2019-02-17T16:40:43.380Z,99.90
2019-02-17T16:43:13.722Z,99.90
2019-02-17T16:45:44.244Z,99.90
2019-02-17T16:48:14.480Z,99.90
2019-02-17T16:50:44.564Z,99.90
2019-02-17T16:53:14.515Z,99.90
2019-02-17T16:55:44.963Z,99.90
2019-02-17T16:58:15.396Z,99.90
2019-02-17T17:00:45.892Z,99.90
2019-02-17T17:03:16.189Z,99.90
2019-02-17T17:05:46.608Z,99.90
2019-02-17T17:08:17.175Z,99.90
2019-02-17T17:10:47.531Z,99.90
2019-02-17T17:13:17.924Z,99.90
2019-02-17T17:15:48.033Z,99.90
2019-02-17T17:18:18.338Z,99.90
2019-02-17T17:20:48.652Z,99.90
2019-02-17T17:23:18.917Z,99.90
2019-02-17T17:25:49.418Z,99.90
2019-02-17T17:28:19.994Z,99.90
2019-02-17T17:30:50.315Z,99.90
2019-02-17T17:33:20.623Z,99.90
2019-02-17T17:35:50.871Z,99.90
2019-02-17T17:38:21.182Z,99.90
2019-02-17T17:40:51.648Z,99.90
2019-02-17T17:43:21.613Z,99.90
2019-02-17T17:45:51.681Z,99.90
2019-02-17T17:48:21.713Z,99.90
2019-02-17T17:50:51.951Z,99.90
2019-02-17T17:53:22.265Z,99.90
2019-02-17T17:55:52.643Z,99.90
2019-02-17T17:58:22.973Z,99.90
2019-02-17T18:00:53.399Z,99.90
2019-02-17T18:03:23.691Z,99.90
2019-02-17T18:05:54.047Z,99.90
2019-02-17T18:08:24.411Z,99.90
2019-02-17T18:10:54.864Z,99.90
2019-02-17T18:13:25.164Z,99.90
2019-02-17T18:15:55.439Z,99.90
2019-02-17T18:18:25.916Z,99.90
2019-02-17T18:20:56.241Z,99.90
2019-02-17T18:23:26.604Z,99.90
2019-02-17T18:25:57.118Z,99.90
2019-02-17T18:28:27.471Z,99.90
2019-02-17T18:30:57.844Z,99.90
2019-02-17T18:33:28.343Z,99.90
2019-02-17T18:36:00.817Z,99.90
2019-02-17T18:38:35.211Z,99.90
2019-02-17T18:41:05.720Z,99.90
2019-02-17T18:43:36.063Z,99.90
2019-02-17T18:46:06.651Z,99.90
2019-02-17T18:48:37.177Z,99.90
2019-02-17T18:51:07.935Z,99.90
2019-02-17T18:53:38.338Z,99.90
2019-02-17T18:56:09.859Z,99.90
2019-02-17T18:58:41.433Z,99.90
2019-02-17T19:01:12.036Z,99.90
2019-02-17T19:03:42.854Z,99.90
2019-02-17T19:06:13.646Z,99.90
2019-02-17T19:08:45.236Z,99.90
2019-02-17T19:11:15.732Z,99.90
2019-02-17T19:13:47.243Z,99.90
2019-02-17T19:16:19.460Z,99.90
2019-02-17T19:18:50.600Z,99.90
2019-02-17T19:21:21.323Z,99.90
2019-02-17T19:23:51.711Z,99.90
2019-02-17T19:26:23.699Z,99.90
2019-02-17T19:28:54.651Z,99.90
2019-02-17T19:31:25.931Z,99.90
2019-02-17T19:33:57.009Z,99.90
2019-02-17T19:36:27.637Z,99.90
2019-02-17T19:38:58.440Z,99.90
2019-02-17T19:41:29.843Z,99.90
2019-02-17T19:44:00.470Z,99.90
2019-02-17T19:46:31.613Z,99.90
2019-02-17T19:49:03.350Z,99.90
2019-02-17T19:51:34.419Z,99.90
2019-02-17T19:54:05.479Z,99.90
2019-02-17T19:56:36.523Z,99.90
2019-02-17T19:59:07.293Z,99.90
2019-02-17T20:01:38.108Z,99.90
2019-02-17T20:04:15.776Z,99.90
2019-02-17T20:06:46.970Z,99.90
2019-02-17T20:09:19.514Z,99.90
2019-02-17T20:11:52.160Z,99.90
2019-02-17T20:14:20.537Z,99.90
2019-02-17T20:16:50.958Z,99.90
2019-02-17T20:19:21.353Z,99.90
2019-02-17T20:21:51.914Z,99.90
2019-02-17T20:24:22.537Z,99.90
2019-02-17T20:26:53.327Z,99.90
2019-02-17T20:29:23.563Z,99.90
2019-02-17T20:31:54.021Z,99.90
2019-02-17T20:34:24.528Z,99.90
2019-02-17T20:36:55.052Z,99.90
2019-02-17T20:39:25.363Z,99.90
2019-02-17T20:41:55.703Z,99.90
2019-02-17T20:44:25.983Z,99.90
2019-02-17T20:46:56.486Z,99.90
2019-02-17T20:49:26.783Z,99.90
2019-02-17T20:51:57.291Z,99.90
2019-02-17T20:54:27.866Z,99.90
2019-02-17T20:56:58.314Z,99.90
2019-02-17T20:59:28.741Z,99.90
2019-02-17T21:01:59.133Z,99.90
2019-02-17T21:04:29.469Z,99.90
2019-02-17T21:09:29.471Z,99.90
2019-02-17T21:11:59.895Z,99.90
2019-02-17T21:14:30.152Z,99.90
2019-02-17T21:17:00.617Z,99.90
2019-02-17T21:19:31.118Z,99.90
2019-02-17T21:22:01.454Z,99.90
2019-02-17T21:24:31.855Z,99.90
2019-02-17T21:27:02.130Z,99.90
2019-02-17T21:29:32.603Z,99.90
2019-02-17T21:32:03.149Z,99.90
2019-02-17T21:34:33.575Z,99.90
2019-02-17T21:37:03.908Z,99.90
2019-02-17T21:39:34.518Z,99.90
2019-02-17T21:44:34.355Z,99.90
2019-02-17T21:47:04.693Z,99.90
2019-02-17T21:49:34.833Z,99.90
2019-02-17T21:52:05.287Z,99.90
2019-02-17T21:54:35.506Z,99.90
2019-02-17T21:57:05.867Z,99.90
2019-02-17T21:59:35.936Z,99.90
2019-02-17T22:02:06.076Z,99.90
2019-02-17T22:04:36.153Z,99.90
2019-02-17T22:07:06.262Z,99.90
2019-02-17T22:09:36.289Z,99.90
2019-02-17T22:12:06.445Z,99.90
2019-02-17T22:14:36.579Z,99.90
2019-02-17T22:17:06.785Z,99.90
2019-02-17T22:19:36.892Z,99.90
2019-02-17T22:22:07.029Z,99.90
2019-02-17T22:24:37.145Z,99.90
2019-02-17T22:27:07.516Z,99.90
2019-02-17T22:29:37.752Z,99.90
2019-02-17T22:32:07.910Z,99.90
2019-02-17T22:34:38.352Z,99.90
2019-02-17T22:37:08.747Z,99.90
2019-02-17T22:39:39.039Z,99.90
2019-02-17T22:42:09.574Z,99.90
2019-02-17T22:44:39.895Z,99.90
2019-02-17T22:47:10.378Z,99.90
2019-02-17T22:49:40.822Z,99.90
2019-02-17T22:52:11.067Z,99.90
2019-02-17T22:54:41.459Z,99.90
2019-02-17T22:57:11.828Z,99.90
2019-02-17T22:59:42.298Z,99.90
2019-02-17T23:02:12.838Z,99.90
2019-02-17T23:04:43.434Z,99.90
2019-02-17T23:07:13.698Z,99.90
2019-02-17T23:09:44.055Z,99.90
2019-02-17T23:12:15.030Z,99.90
2019-02-17T23:14:45.495Z,99.90
2019-02-17T23:19:45.499Z,99.90
2019-02-17T23:22:16.092Z,99.90
2019-02-17T23:24:46.858Z,99.90
2019-02-17T23:27:17.374Z,99.90
2019-02-17T23:29:47.677Z,99.90
2019-02-17T23:32:18.172Z,99.90
2019-02-17T23:34:48.291Z,99.90
2019-02-17T23:37:18.415Z,99.90
2019-02-17T23:39:48.518Z,99.90
2019-02-17T23:42:18.608Z,99.90
2019-02-17T23:44:48.688Z,99.90
2019-02-17T23:47:18.832Z,99.90
2019-02-17T23:49:48.940Z,99.90
2019-02-17T23:52:19.503Z,99.90
2019-02-17T23:54:49.592Z,99.90
2019-02-17T23:57:19.706Z,99.90
2019-02-17T23:59:49.837Z,99.90
